Sea Otter — WDH4842 — position and weather

sailwx.info

Track history (hours):
 
Tides and Currents Weather Stations Pressure Air Temp Water Temp Dewpoint Dewpoint Depression Visibility Wind Speed Wind Dir Waves Ship Positions

Sea Otter

Owner: GARBER BROTHERS INC, MORGAN CITY, LA. More information available from US FCC via Universal Licensing System and Coast Guard Vessel Documentation Center.

Last reported at 2017-Nov-10 03:50 UTC. Time now 2017-Nov-18 23:41 UTC.
Position N 29°34' W 090°32'.
Warning: this ship's position is 8 days out of date.

Length 21 m.

Type: Other ship. MMSI: 367621940.

Date/timePositionNaut miles runAvg speedWind from/ knotsBaromVisibWave heightAir tempDewpointWater temp
2017-Nov-10 03:50N 29°34' W 090°32'3 7.4
2017-Nov-10 03:25N 29°35' W 090°35'1 3.1
2017-Nov-10 02:59N 29°35' W 090°37'3 6.7
2017-Nov-10 02:30N 29°36' W 090°40'2 4.5
2017-Nov-10 02:00N 29°36' W 090°43'3 5.2
2017-Nov-10 01:30N 29°34' W 090°43'3 5.9
2017-Nov-10 01:00N 29°32' W 090°46'5 8.8
2017-Nov-10 00:28N 29°32' W 090°52'4 8.4
2017-Nov-09 23:59N 29°34' W 090°56'  
2017-Nov-05 06:38N 29°32' W 090°49'1 4.4
2017-Nov-05 06:30N 29°32' W 090°48'2 4.3
2017-Nov-05 06:01N 29°32' W 090°46'2 3.8
2017-Nov-05 05:31N 29°34' W 090°44'1 2.3
2017-Nov-05 05:00N 29°34' W 090°43'0 0.2
2017-Nov-05 04:30N 29°34' W 090°43'0 0.1
2017-Nov-05 04:00N 29°34' W 090°43'0 0.0
2017-Nov-05 03:27N 29°34' W 090°43'0 0.0
2017-Nov-05 03:00N 29°34' W 090°43'0 0.0
2017-Nov-05 02:30N 29°34' W 090°43'0 0.0
2017-Nov-05 02:00N 29°34' W 090°43'0 0.0
2017-Nov-05 01:30N 29°34' W 090°43'0 0.0
2017-Nov-05 01:00N 29°34' W 090°43'0 0.0
2017-Nov-05 00:30N 29°34' W 090°43'0 0.0
2017-Nov-05 00:00N 29°34' W 090°43'1 2.1
2017-Nov-04 23:30N 29°34' W 090°42'1 1.9
2017-Nov-04 22:58N 29°33' W 090°41'0 0.0
2017-Nov-04 22:28N 29°33' W 090°41'0 0.0
2017-Nov-04 21:58N 29°33' W 090°41'0 0.0
2017-Nov-04 21:28N 29°33' W 090°41'0 0.0
2017-Nov-04 20:58N 29°33' W 090°41'0 0.0
2017-Nov-04 20:28N 29°33' W 090°41'0 0.0
2017-Nov-04 19:58N 29°33' W 090°41'0 0.0
2017-Nov-04 19:28N 29°33' W 090°41'0 0.0
2017-Nov-04 18:58N 29°33' W 090°41'0 0.0
2017-Nov-04 18:28N 29°33' W 090°41'0 0.0
2017-Nov-04 17:58N 29°33' W 090°41'0 0.0
2017-Nov-04 17:28N 29°33' W 090°41'0 0.0
2017-Nov-04 16:58N 29°33' W 090°41'0 0.0
2017-Nov-04 16:28N 29°33' W 090°41'0 0.0
2017-Nov-04 15:58N 29°33' W 090°41'0 0.0
2017-Nov-04 15:28N 29°33' W 090°41'0 0.0
2017-Nov-04 14:58N 29°33' W 090°41'0 0.0
2017-Nov-04 14:28N 29°33' W 090°41'0 0.0
2017-Nov-04 13:58N 29°33' W 090°41'0 0.0
2017-Nov-04 13:28N 29°33' W 090°41'0 0.0
2017-Nov-04 12:58N 29°33' W 090°41'0 0.0
2017-Nov-04 12:28N 29°33' W 090°41'0 0.0
2017-Nov-04 11:58N 29°33' W 090°41'0 0.0
2017-Nov-04 11:28N 29°33' W 090°41'0 0.0
2017-Nov-04 10:58N 29°33' W 090°41'0 0.0
2017-Nov-04 10:28N 29°33' W 090°41'0 0.0
2017-Nov-04 09:58N 29°33' W 090°41'0 0.0
2017-Nov-04 09:28N 29°33' W 090°41'0 0.0
2017-Nov-04 08:58N 29°33' W 090°41'0 0.0
2017-Nov-04 08:28N 29°33' W 090°41'0 0.0
2017-Nov-04 07:58N 29°33' W 090°41'0 0.0
2017-Nov-04 07:28N 29°33' W 090°41'0 0.0
2017-Nov-04 06:58N 29°33' W 090°41'0 0.0
2017-Nov-04 06:28N 29°33' W 090°41'0 0.0
2017-Nov-04 05:58N 29°33' W 090°41'0 0.0
2017-Nov-04 05:28N 29°33' W 090°41'0 0.0
2017-Nov-04 04:58N 29°33' W 090°41'0 0.0
2017-Nov-04 04:30N 29°33' W 090°41'0 0.0
2017-Nov-04 03:58N 29°33' W 090°41'0 0.0
2017-Nov-04 03:31N 29°33' W 090°41'0 0.0
2017-Nov-04 03:00N 29°33' W 090°41'0 0.0
2017-Nov-04 02:30N 29°33' W 090°41'0 0.0
2017-Nov-04 01:57N 29°33' W 090°41'0 0.0
2017-Nov-04 01:31N 29°33' W 090°41'0 0.0
2017-Nov-04 01:00N 29°33' W 090°41'0 0.0
2017-Nov-04 00:30N 29°33' W 090°41'0 0.0
2017-Nov-04 00:00N 29°33' W 090°41'0 0.0
2017-Nov-03 23:31N 29°33' W 090°41'0 0.0
2017-Nov-03 23:01N 29°33' W 090°41'0 0.0
2017-Nov-03 22:31N 29°33' W 090°41'0 0.0
2017-Nov-03 22:00N 29°33' W 090°41'0 0.0
2017-Nov-03 21:28N 29°33' W 090°41'0 0.0
2017-Nov-03 21:01N 29°33' W 090°41'0 0.0
2017-Nov-03 20:31N 29°33' W 090°41'0 0.0
2017-Nov-03 20:00N 29°33' W 090°41'0 0.0
2017-Nov-03 19:30N 29°33' W 090°41'0 0.0
2017-Nov-03 19:00N 29°33' W 090°41'0 0.0
2017-Nov-03 18:31N 29°33' W 090°41'0 0.0
2017-Nov-03 18:01N 29°33' W 090°41'0 0.0
2017-Nov-03 17:30N 29°33' W 090°41'0 0.0
2017-Nov-03 17:00N 29°33' W 090°41'0 0.0
2017-Nov-03 16:30N 29°33' W 090°41'0 0.0
2017-Nov-03 16:00N 29°33' W 090°41'0 0.0
2017-Nov-03 15:30N 29°33' W 090°41'0 0.0
2017-Nov-03 15:00N 29°33' W 090°41'0 0.0
2017-Nov-03 14:30N 29°33' W 090°41'0 0.0
2017-Nov-03 14:00N 29°33' W 090°41'0 0.0
2017-Nov-03 13:30N 29°33' W 090°41'0 0.0
2017-Nov-03 13:00N 29°33' W 090°41'0 0.0
2017-Nov-01 21:16N 29°33' W 090°41'1 3.0
2017-Nov-01 21:01N 29°33' W 090°42'1 1.8
2017-Nov-01 20:31N 29°34' W 090°42'0 0.0
2017-Nov-01 20:01N 29°34' W 090°42'0 0.0
2017-Nov-01 19:30N 29°34' W 090°42'0 0.0
2017-Nov-01 19:01N 29°34' W 090°42'0 0.0
2017-Nov-01 18:30N 29°34' W 090°42'1 0.1
2017-Nov-01 02:01N 29°33' W 090°42'2 4.8
2017-Nov-01 01:31N 29°35' W 090°43'2 3.9
2017-Nov-01 01:01N 29°37' W 090°41'1 2.8
2017-Nov-01 00:30N 29°36' W 090°40'0 0.0
2017-Oct-31 23:48N 29°36' W 090°40'0 0.0
2017-Oct-31 23:09N 29°36' W 090°40'0 1.8
2017-Oct-31 23:00N 29°36' W 090°40'2 4.4
2017-Oct-31 22:31N 29°36' W 090°43'3 5.7
2017-Oct-31 22:01N 29°34' W 090°44'4 7.0
2017-Oct-31 21:31N 29°32' W 090°48'4 8.0
2017-Oct-31 20:57N 29°32' W 090°53'5 8.0
2017-Oct-31 20:22N 29°35' W 090°58'  
Track history (hours):
 
Tides and Currents Weather Stations Pressure Air Temp Water Temp Dewpoint Dewpoint Depression Visibility Wind Speed Wind Dir Waves Ship Positions

Sea Otter

Owner: GARBER BROTHERS INC, MORGAN CITY, LA. More information available from US FCC via Universal Licensing System and Coast Guard Vessel Documentation Center.

Last reported at 2017-Nov-10 03:50 UTC. Time now 2017-Nov-18 23:41 UTC.
Position N 29°34' W 090°32'.
Warning: this ship's position is 8 days out of date.

Length 21 m.

Type: Other ship. MMSI: 367621940.

Date/timePositionNaut miles runAvg speedWind from/ knotsBaromVisibWave heightAir tempDewpointWater temp
2017-Nov-10 03:50N 29°34' W 090°32'3 7.4
2017-Nov-10 03:25N 29°35' W 090°35'1 3.1
2017-Nov-10 02:59N 29°35' W 090°37'3 6.7
2017-Nov-10 02:30N 29°36' W 090°40'2 4.5
2017-Nov-10 02:00N 29°36' W 090°43'3 5.2
2017-Nov-10 01:30N 29°34' W 090°43'3 5.9
2017-Nov-10 01:00N 29°32' W 090°46'5 8.8
2017-Nov-10 00:28N 29°32' W 090°52'4 8.4
2017-Nov-09 23:59N 29°34' W 090°56'  
2017-Nov-05 06:38N 29°32' W 090°49'1 4.4
2017-Nov-05 06:30N 29°32' W 090°48'2 4.3
2017-Nov-05 06:01N 29°32' W 090°46'2 3.8
2017-Nov-05 05:31N 29°34' W 090°44'1 2.3
2017-Nov-05 05:00N 29°34' W 090°43'0 0.2
2017-Nov-05 04:30N 29°34' W 090°43'0 0.1
2017-Nov-05 04:00N 29°34' W 090°43'0 0.0
2017-Nov-05 03:27N 29°34' W 090°43'0 0.0
2017-Nov-05 03:00N 29°34' W 090°43'0 0.0
2017-Nov-05 02:30N 29°34' W 090°43'0 0.0
2017-Nov-05 02:00N 29°34' W 090°43'0 0.0
2017-Nov-05 01:30N 29°34' W 090°43'0 0.0
2017-Nov-05 01:00N 29°34' W 090°43'0 0.0
2017-Nov-05 00:30N 29°34' W 090°43'0 0.0
2017-Nov-05 00:00N 29°34' W 090°43'1 2.1
2017-Nov-04 23:30N 29°34' W 090°42'1 1.9
2017-Nov-04 22:58N 29°33' W 090°41'0 0.0
2017-Nov-04 22:28N 29°33' W 090°41'0 0.0
2017-Nov-04 21:58N 29°33' W 090°41'0 0.0
2017-Nov-04 21:28N 29°33' W 090°41'0 0.0
2017-Nov-04 20:58N 29°33' W 090°41'0 0.0
2017-Nov-04 20:28N 29°33' W 090°41'0 0.0
2017-Nov-04 19:58N 29°33' W 090°41'0 0.0
2017-Nov-04 19:28N 29°33' W 090°41'0 0.0
2017-Nov-04 18:58N 29°33' W 090°41'0 0.0
2017-Nov-04 18:28N 29°33' W 090°41'0 0.0
2017-Nov-04 17:58N 29°33' W 090°41'0 0.0
2017-Nov-04 17:28N 29°33' W 090°41'0 0.0
2017-Nov-04 16:58N 29°33' W 090°41'0 0.0
2017-Nov-04 16:28N 29°33' W 090°41'0 0.0
2017-Nov-04 15:58N 29°33' W 090°41'0 0.0
2017-Nov-04 15:28N 29°33' W 090°41'0 0.0
2017-Nov-04 14:58N 29°33' W 090°41'0 0.0
2017-Nov-04 14:28N 29°33' W 090°41'0 0.0
2017-Nov-04 13:58N 29°33' W 090°41'0 0.0
2017-Nov-04 13:28N 29°33' W 090°41'0 0.0
2017-Nov-04 12:58N 29°33' W 090°41'0 0.0
2017-Nov-04 12:28N 29°33' W 090°41'0 0.0
2017-Nov-04 11:58N 29°33' W 090°41'0 0.0
2017-Nov-04 11:28N 29°33' W 090°41'0 0.0
2017-Nov-04 10:58N 29°33' W 090°41'0 0.0
2017-Nov-04 10:28N 29°33' W 090°41'0 0.0
2017-Nov-04 09:58N 29°33' W 090°41'0 0.0
2017-Nov-04 09:28N 29°33' W 090°41'0 0.0
2017-Nov-04 08:58N 29°33' W 090°41'0 0.0
2017-Nov-04 08:28N 29°33' W 090°41'0 0.0
2017-Nov-04 07:58N 29°33' W 090°41'0 0.0
2017-Nov-04 07:28N 29°33' W 090°41'0 0.0
2017-Nov-04 06:58N 29°33' W 090°41'0 0.0
2017-Nov-04 06:28N 29°33' W 090°41'0 0.0
2017-Nov-04 05:58N 29°33' W 090°41'0 0.0
2017-Nov-04 05:28N 29°33' W 090°41'0 0.0
2017-Nov-04 04:58N 29°33' W 090°41'0 0.0
2017-Nov-04 04:30N 29°33' W 090°41'0 0.0
2017-Nov-04 03:58N 29°33' W 090°41'0 0.0
2017-Nov-04 03:31N 29°33' W 090°41'0 0.0
2017-Nov-04 03:00N 29°33' W 090°41'0 0.0
2017-Nov-04 02:30N 29°33' W 090°41'0 0.0
2017-Nov-04 01:57N 29°33' W 090°41'0 0.0
2017-Nov-04 01:31N 29°33' W 090°41'0 0.0
2017-Nov-04 01:00N 29°33' W 090°41'0 0.0
2017-Nov-04 00:30N 29°33' W 090°41'0 0.0
2017-Nov-04 00:00N 29°33' W 090°41'0 0.0
2017-Nov-03 23:31N 29°33' W 090°41'0 0.0
2017-Nov-03 23:01N 29°33' W 090°41'0 0.0
2017-Nov-03 22:31N 29°33' W 090°41'0 0.0
2017-Nov-03 22:00N 29°33' W 090°41'0 0.0
2017-Nov-03 21:28N 29°33' W 090°41'0 0.0
2017-Nov-03 21:01N 29°33' W 090°41'0 0.0
2017-Nov-03 20:31N 29°33' W 090°41'0 0.0
2017-Nov-03 20:00N 29°33' W 090°41'0 0.0
2017-Nov-03 19:30N 29°33' W 090°41'0 0.0
2017-Nov-03 19:00N 29°33' W 090°41'0 0.0
2017-Nov-03 18:31N 29°33' W 090°41'0 0.0
2017-Nov-03 18:01N 29°33' W 090°41'0 0.0
2017-Nov-03 17:30N 29°33' W 090°41'0 0.0
2017-Nov-03 17:00N 29°33' W 090°41'0 0.0
2017-Nov-03 16:30N 29°33' W 090°41'0 0.0
2017-Nov-03 16:00N 29°33' W 090°41'0 0.0
2017-Nov-03 15:30N 29°33' W 090°41'0 0.0
2017-Nov-03 15:00N 29°33' W 090°41'0 0.0
2017-Nov-03 14:30N 29°33' W 090°41'0 0.0
2017-Nov-03 14:00N 29°33' W 090°41'0 0.0
2017-Nov-03 13:30N 29°33' W 090°41'0 0.0
2017-Nov-03 13:00N 29°33' W 090°41'0 0.0
2017-Nov-01 21:16N 29°33' W 090°41'1 3.0
2017-Nov-01 21:01N 29°33' W 090°42'1 1.8
2017-Nov-01 20:31N 29°34' W 090°42'0 0.0
2017-Nov-01 20:01N 29°34' W 090°42'0 0.0
2017-Nov-01 19:30N 29°34' W 090°42'0 0.0
2017-Nov-01 19:01N 29°34' W 090°42'0 0.0
2017-Nov-01 18:30N 29°34' W 090°42'1 0.1
2017-Nov-01 02:01N 29°33' W 090°42'2 4.8
2017-Nov-01 01:31N 29°35' W 090°43'2 3.9
2017-Nov-01 01:01N 29°37' W 090°41'1 2.8
2017-Nov-01 00:30N 29°36' W 090°40'0 0.0
2017-Oct-31 23:48N 29°36' W 090°40'0 0.0
2017-Oct-31 23:09N 29°36' W 090°40'0 1.8
2017-Oct-31 23:00N 29°36' W 090°40'2 4.4
2017-Oct-31 22:31N 29°36' W 090°43'3 5.7
2017-Oct-31 22:01N 29°34' W 090°44'4 7.0
2017-Oct-31 21:31N 29°32' W 090°48'4 8.0
2017-Oct-31 20:57N 29°32' W 090°53'5 8.0
2017-Oct-31 20:22N 29°35' W 090°58'  

Dump ship's entire track history